Terminal Aerodrome Forecast
Issued by NWS

Home | Current Version | Previous Version | Text Only | Print | Product List | Glossary On
Versions: 1 2 3 4 5 6 7 8 9 10 11 12 13 14
000
FTAK31 PANC 232331
TAFAAQ
TAF
PAAQ 232331Z 2400/2424 14007KT P6SM VCSH SCT030 BKN200
      TEMPO 2400/2402 BKN025
     FM240600 VRB03KT P6SM SCT050 BKN120
     FM241500 VRB03KT P6SM -RA SCT040 OVC060
     FM242000 VRB04KT 6SM -RA BR BKN025 OVC040=

USA.gov is the U.S. government's official web portal to all federal, state and local government web resources and services.